EWG523 FMMI-FMEE
Flight info
| Callsign | EWG523 |
|---|---|
| Flight time | 1h 15m |
| Altitude | 37000 |
| Route | PIPRI1E TE UA401 UNKIK UNKIK2R |
| Aircraft | A320/M-SDE3FGHIRWY/LB1 |
Departure
| Time | 2026-04-18 07:10 |
|---|---|
| Airport | Ivato International Airport (FMMI) |
Arrival
| Time | 2026-04-18 08:25 |
|---|---|
| Airport | Roland Garros Airport (FMEE) |
| Time | Latitude | Longitude | Altitude | Speed | Heading |
|---|---|---|---|---|---|
| 2026-04-18 06:42 | -18.79962 | 47.47847 | 4133 ft | 0 kts | 188° |
| 2026-04-18 06:57 | -18.79956 | 47.47848 | 4140 ft | 4 kts | 188° |
| 2026-04-18 06:57 | -18.79929 | 47.47852 | 4141 ft | 4 kts | 189° |
| 2026-04-18 06:58 | -18.79903 | 47.47857 | 4140 ft | 4 kts | 193° |
| 2026-04-18 06:58 | -18.79886 | 47.47863 | 4139 ft | 2 kts | 211° |
| 2026-04-18 06:58 | -18.79878 | 47.47870 | 4135 ft | 2 kts | 253° |
| 2026-04-18 06:58 | -18.79876 | 47.47881 | 4139 ft | 2 kts | 275° |
| 2026-04-18 06:59 | -18.79877 | 47.47892 | 4133 ft | 0 kts | 279° |
| 2026-04-18 07:01 | -18.79863 | 47.47835 | 4139 ft | 15 kts | 299° |
| 2026-04-18 07:01 | -18.79852 | 47.47757 | 4133 ft | 6 kts | 272° |
| 2026-04-18 07:01 | -18.79840 | 47.47666 | 4135 ft | 22 kts | 279° |
| 2026-04-18 07:02 | -18.79775 | 47.47590 | 4141 ft | 13 kts | 8° |
| 2026-04-18 07:02 | -18.79724 | 47.47598 | 4134 ft | 0 kts | 10° |
| 2026-04-18 07:06 | -18.79687 | 47.47603 | 4134 ft | 12 kts | 356° |
| 2026-04-18 07:06 | -18.79636 | 47.47509 | 4137 ft | 18 kts | 278° |
| 2026-04-18 07:06 | -18.79612 | 47.47354 | 4142 ft | 27 kts | 278° |
| 2026-04-18 07:07 | -18.79578 | 47.47116 | 4132 ft | 38 kts | 279° |
| 2026-04-18 07:07 | -18.79534 | 47.46822 | 4133 ft | 41 kts | 279° |
| 2026-04-18 07:07 | -18.79494 | 47.46550 | 4136 ft | 28 kts | 278° |
| 2026-04-18 07:07 | -18.79445 | 47.46474 | 4135 ft | 7 kts | 298° |
| 2026-04-18 07:08 | -18.79449 | 47.46453 | 4135 ft | 1 kts | 237° |
| 2026-04-18 07:08 | -18.79482 | 47.46457 | 4140 ft | 6 kts | 119° |
| 2026-04-18 07:08 | -18.79483 | 47.46475 | 4133 ft | 0 kts | 98° |
| 2026-04-18 07:09 | -18.79507 | 47.46641 | 4135 ft | 58 kts | 99° |
| 2026-04-18 07:09 | -18.79602 | 47.47279 | 4135 ft | 116 kts | 99° |
| 2026-04-18 07:09 | -18.79750 | 47.48299 | 4135 ft | 163 kts | 98° |
| 2026-04-18 07:09 | -18.79931 | 47.49524 | 4611 ft | 167 kts | 100° |
| 2026-04-18 07:10 | -18.80133 | 47.50708 | 5331 ft | 163 kts | 101° |
| 2026-04-18 07:10 | -18.80357 | 47.51886 | 5883 ft | 165 kts | 100° |
| 2026-04-18 07:10 | -18.80535 | 47.53092 | 6318 ft | 167 kts | 98° |
| 2026-04-18 07:10 | -18.80716 | 47.54318 | 6763 ft | 170 kts | 99° |
| 2026-04-18 07:11 | -18.80932 | 47.55556 | 7203 ft | 173 kts | 101° |
| 2026-04-18 07:11 | -18.81186 | 47.56812 | 7557 ft | 181 kts | 102° |
| 2026-04-18 07:11 | -18.81500 | 47.58170 | 7758 ft | 201 kts | 104° |
| 2026-04-18 07:11 | -18.81888 | 47.59673 | 7913 ft | 224 kts | 105° |
| 2026-04-18 07:12 | -18.82203 | 47.60876 | 8059 ft | 238 kts | 103° |
| 2026-04-18 07:12 | -18.82601 | 47.62659 | 8236 ft | 263 kts | 101° |
| 2026-04-18 07:12 | -18.82979 | 47.64678 | 8435 ft | 290 kts | 99° |
| 2026-04-18 07:12 | -18.83348 | 47.66788 | 9031 ft | 295 kts | 100° |
| 2026-04-18 07:13 | -18.83769 | 47.68914 | 10058 ft | 292 kts | 102° |
| 2026-04-18 07:13 | -18.84228 | 47.71029 | 10620 ft | 302 kts | 102° |
| 2026-04-18 07:13 | -18.84727 | 47.73249 | 10975 ft | 319 kts | 103° |
| 2026-04-18 07:13 | -18.85247 | 47.75562 | 11309 ft | 336 kts | 103° |
| 2026-04-18 07:14 | -18.85801 | 47.78054 | 11625 ft | 352 kts | 103° |
| 2026-04-18 07:14 | -18.86364 | 47.80607 | 12122 ft | 360 kts | 103° |
| 2026-04-18 07:14 | -18.86926 | 47.83178 | 12728 ft | 365 kts | 103° |
| 2026-04-18 07:14 | -18.87493 | 47.85803 | 13347 ft | 369 kts | 103° |
| 2026-04-18 07:15 | -18.88065 | 47.88459 | 13952 ft | 373 kts | 103° |
| 2026-04-18 07:15 | -18.88645 | 47.91145 | 14477 ft | 377 kts | 103° |
| 2026-04-18 07:15 | -18.89226 | 47.93857 | 15034 ft | 380 kts | 103° |
| 2026-04-18 07:15 | -18.89806 | 47.96589 | 15601 ft | 383 kts | 103° |
| 2026-04-18 07:16 | -18.90384 | 47.99343 | 16151 ft | 385 kts | 103° |
| 2026-04-18 07:16 | -18.90970 | 48.02149 | 16700 ft | 388 kts | 103° |
| 2026-04-18 07:16 | -18.91552 | 48.04938 | 17238 ft | 391 kts | 103° |
| 2026-04-18 07:16 | -18.92131 | 48.07713 | 17768 ft | 393 kts | 102° |
| 2026-04-18 07:17 | -18.92720 | 48.10542 | 18305 ft | 396 kts | 102° |
| 2026-04-18 07:17 | -18.93315 | 48.13392 | 18774 ft | 399 kts | 102° |
| 2026-04-18 07:17 | -18.93914 | 48.16261 | 19228 ft | 402 kts | 103° |
| 2026-04-18 07:17 | -18.94515 | 48.19152 | 19683 ft | 405 kts | 103° |
| 2026-04-18 07:18 | -18.95121 | 48.22063 | 20120 ft | 408 kts | 103° |
| 2026-04-18 07:18 | -18.95804 | 48.24983 | 20568 ft | 411 kts | 105° |
| 2026-04-18 07:18 | -18.96601 | 48.27894 | 21007 ft | 414 kts | 107° |
| 2026-04-18 07:18 | -18.97471 | 48.30809 | 21437 ft | 417 kts | 108° |
| 2026-04-18 07:19 | -18.98374 | 48.33735 | 21868 ft | 420 kts | 109° |
| 2026-04-18 07:19 | -18.99280 | 48.36688 | 22298 ft | 423 kts | 108° |
| 2026-04-18 07:19 | -19.00173 | 48.39666 | 22712 ft | 426 kts | 108° |
| 2026-04-18 07:19 | -19.01054 | 48.42669 | 23110 ft | 429 kts | 108° |
| 2026-04-18 07:20 | -19.01928 | 48.45699 | 23506 ft | 432 kts | 107° |
| 2026-04-18 07:20 | -19.02795 | 48.48751 | 23857 ft | 435 kts | 107° |
| 2026-04-18 07:20 | -19.03667 | 48.51825 | 24175 ft | 437 kts | 107° |
| 2026-04-18 07:20 | -19.04543 | 48.54907 | 24498 ft | 440 kts | 107° |
| 2026-04-18 07:21 | -19.05128 | 48.56965 | 24711 ft | 441 kts | 107° |
| 2026-04-18 07:21 | -19.06019 | 48.60079 | 25031 ft | 443 kts | 107° |
| 2026-04-18 07:21 | -19.06916 | 48.63205 | 25338 ft | 446 kts | 108° |
| 2026-04-18 07:21 | -19.07819 | 48.66355 | 25657 ft | 448 kts | 107° |
| 2026-04-18 07:22 | -19.08723 | 48.69510 | 25956 ft | 450 kts | 108° |
| 2026-04-18 07:22 | -19.09632 | 48.72683 | 26264 ft | 452 kts | 108° |
| 2026-04-18 07:22 | -19.10542 | 48.75874 | 26568 ft | 454 kts | 107° |
| 2026-04-18 07:22 | -19.11457 | 48.79089 | 26870 ft | 457 kts | 108° |
| 2026-04-18 07:23 | -19.12373 | 48.82310 | 27143 ft | 459 kts | 108° |
| 2026-04-18 07:23 | -19.13294 | 48.85548 | 27414 ft | 461 kts | 108° |
| 2026-04-18 07:23 | -19.14224 | 48.88809 | 27693 ft | 463 kts | 108° |
| 2026-04-18 07:23 | -19.15158 | 48.92085 | 27963 ft | 466 kts | 108° |
| 2026-04-18 07:24 | -19.16096 | 48.95377 | 28231 ft | 468 kts | 108° |
| 2026-04-18 07:24 | -19.17034 | 48.98681 | 28476 ft | 470 kts | 108° |
| 2026-04-18 07:24 | -19.17976 | 49.01997 | 28725 ft | 472 kts | 108° |
| 2026-04-18 07:24 | -19.18913 | 49.05300 | 28959 ft | 474 kts | 108° |
| 2026-04-18 07:25 | -19.19862 | 49.08651 | 29171 ft | 476 kts | 108° |
| 2026-04-18 07:25 | -19.20816 | 49.12016 | 29383 ft | 478 kts | 108° |
| 2026-04-18 07:25 | -19.21773 | 49.15389 | 29587 ft | 480 kts | 108° |
| 2026-04-18 07:25 | -19.22739 | 49.18783 | 29800 ft | 482 kts | 108° |
| 2026-04-18 07:26 | -19.23703 | 49.22178 | 30053 ft | 482 kts | 108° |
| 2026-04-18 07:26 | -19.24663 | 49.25571 | 30301 ft | 481 kts | 108° |
| 2026-04-18 07:26 | -19.25617 | 49.28961 | 30554 ft | 481 kts | 108° |
| 2026-04-18 07:26 | -19.26570 | 49.32353 | 30803 ft | 481 kts | 108° |
| 2026-04-18 07:27 | -19.27521 | 49.35740 | 31048 ft | 480 kts | 108° |
| 2026-04-18 07:27 | -19.28475 | 49.39135 | 31292 ft | 480 kts | 108° |
| 2026-04-18 07:27 | -19.29425 | 49.42522 | 31533 ft | 480 kts | 108° |
| 2026-04-18 07:27 | -19.30376 | 49.45905 | 31782 ft | 479 kts | 108° |
| 2026-04-18 07:28 | -19.31339 | 49.49327 | 32029 ft | 479 kts | 108° |
| 2026-04-18 07:28 | -19.32278 | 49.52663 | 32273 ft | 479 kts | 108° |
| 2026-04-18 07:28 | -19.33229 | 49.56045 | 32520 ft | 478 kts | 108° |
| 2026-04-18 07:28 | -19.34175 | 49.59422 | 32767 ft | 478 kts | 108° |
| 2026-04-18 07:29 | -19.35130 | 49.62838 | 33009 ft | 478 kts | 108° |
| 2026-04-18 07:29 | -19.36073 | 49.66211 | 33262 ft | 478 kts | 108° |
| 2026-04-18 07:29 | -19.37013 | 49.69587 | 33498 ft | 477 kts | 108° |
| 2026-04-18 07:29 | -19.37954 | 49.72955 | 33738 ft | 477 kts | 108° |
| 2026-04-18 07:30 | -19.38895 | 49.76323 | 33983 ft | 477 kts | 108° |
| 2026-04-18 07:30 | -19.39834 | 49.79687 | 34192 ft | 476 kts | 108° |
| 2026-04-18 07:30 | -19.40771 | 49.83047 | 34397 ft | 476 kts | 108° |
| 2026-04-18 07:30 | -19.41708 | 49.86412 | 34603 ft | 476 kts | 108° |
| 2026-04-18 07:31 | -19.42646 | 49.89774 | 34806 ft | 476 kts | 108° |
| 2026-04-18 07:31 | -19.43580 | 49.93130 | 34992 ft | 475 kts | 108° |
| 2026-04-18 07:31 | -19.44518 | 49.96496 | 35182 ft | 475 kts | 108° |
| 2026-04-18 07:31 | -19.45450 | 49.99849 | 35359 ft | 475 kts | 108° |
| 2026-04-18 07:32 | -19.46382 | 50.03206 | 35540 ft | 475 kts | 108° |
| 2026-04-18 07:32 | -19.47315 | 50.06563 | 35708 ft | 474 kts | 108° |
| 2026-04-18 07:32 | -19.48245 | 50.09915 | 35872 ft | 474 kts | 108° |
| 2026-04-18 07:32 | -19.49176 | 50.13273 | 36034 ft | 474 kts | 108° |
| 2026-04-18 07:33 | -19.50099 | 50.16622 | 36191 ft | 474 kts | 108° |
| 2026-04-18 07:33 | -19.51023 | 50.19974 | 36343 ft | 474 kts | 108° |
| 2026-04-18 07:33 | -19.51947 | 50.23322 | 36492 ft | 473 kts | 108° |
| 2026-04-18 07:33 | -19.52869 | 50.26669 | 36638 ft | 473 kts | 108° |
| 2026-04-18 07:34 | -19.53791 | 50.30015 | 36773 ft | 473 kts | 108° |
| 2026-04-18 07:34 | -19.54715 | 50.33373 | 36937 ft | 472 kts | 108° |
| 2026-04-18 07:34 | -19.56560 | 50.40075 | 37050 ft | 474 kts | 108° |
| 2026-04-18 07:35 | -19.58403 | 50.46797 | 37048 ft | 474 kts | 108° |
| 2026-04-18 07:35 | -19.60244 | 50.53517 | 37050 ft | 475 kts | 108° |
| 2026-04-18 07:36 | -19.62084 | 50.60242 | 37051 ft | 475 kts | 108° |
| 2026-04-18 07:36 | -19.63922 | 50.66972 | 37046 ft | 475 kts | 108° |
| 2026-04-18 07:37 | -19.65763 | 50.73703 | 37048 ft | 475 kts | 108° |
| 2026-04-18 07:37 | -19.67603 | 50.80448 | 37047 ft | 475 kts | 108° |
| 2026-04-18 07:38 | -19.69428 | 50.87157 | 37048 ft | 476 kts | 108° |
| 2026-04-18 07:38 | -19.71265 | 50.93908 | 37051 ft | 476 kts | 108° |
| 2026-04-18 07:39 | -19.73096 | 51.00657 | 37050 ft | 476 kts | 108° |
| 2026-04-18 07:39 | -19.74929 | 51.07424 | 37056 ft | 476 kts | 108° |
| 2026-04-18 07:40 | -19.76755 | 51.14191 | 37054 ft | 476 kts | 107° |
| 2026-04-18 07:40 | -19.78574 | 51.20953 | 37053 ft | 476 kts | 107° |
| 2026-04-18 07:41 | -19.80401 | 51.27722 | 37051 ft | 477 kts | 107° |
| 2026-04-18 07:41 | -19.82224 | 51.34490 | 37048 ft | 477 kts | 107° |
| 2026-04-18 07:42 | -19.84041 | 51.41263 | 37045 ft | 477 kts | 107° |
| 2026-04-18 07:42 | -19.85859 | 51.48047 | 37048 ft | 478 kts | 107° |
| 2026-04-18 07:43 | -19.87680 | 51.54831 | 37053 ft | 478 kts | 107° |
| 2026-04-18 07:43 | -19.89496 | 51.61619 | 37057 ft | 478 kts | 107° |
| 2026-04-18 07:44 | -19.91308 | 51.68413 | 37055 ft | 478 kts | 107° |
| 2026-04-18 07:44 | -19.93117 | 51.75208 | 37048 ft | 478 kts | 107° |
| 2026-04-18 07:45 | -19.94934 | 51.82054 | 37051 ft | 478 kts | 107° |
| 2026-04-18 07:45 | -19.96727 | 51.88816 | 37048 ft | 478 kts | 107° |
| 2026-04-18 07:46 | -19.98530 | 51.95632 | 37053 ft | 479 kts | 107° |
| 2026-04-18 07:46 | -20.00340 | 52.02490 | 37060 ft | 479 kts | 107° |
| 2026-04-18 07:47 | -20.02134 | 52.09260 | 37054 ft | 479 kts | 107° |
| 2026-04-18 07:47 | -20.03935 | 52.16081 | 37051 ft | 479 kts | 107° |
| 2026-04-18 07:48 | -20.05737 | 52.22903 | 37048 ft | 479 kts | 106° |
| 2026-04-18 07:48 | -20.07541 | 52.29775 | 37051 ft | 479 kts | 106° |
| 2026-04-18 07:49 | -20.09333 | 52.36608 | 37046 ft | 479 kts | 106° |
| 2026-04-18 07:49 | -20.11120 | 52.43436 | 37052 ft | 479 kts | 106° |
| 2026-04-18 07:50 | -20.12904 | 52.50284 | 37050 ft | 480 kts | 106° |
| 2026-04-18 07:50 | -20.14688 | 52.57130 | 37054 ft | 480 kts | 106° |
| 2026-04-18 07:51 | -20.16473 | 52.63976 | 37053 ft | 480 kts | 106° |
| 2026-04-18 07:51 | -20.18259 | 52.70828 | 37056 ft | 480 kts | 106° |
| 2026-04-18 07:52 | -20.20042 | 52.77688 | 37052 ft | 481 kts | 106° |
| 2026-04-18 07:52 | -20.21816 | 52.84555 | 37053 ft | 481 kts | 106° |
| 2026-04-18 07:53 | -20.23597 | 52.91428 | 37056 ft | 481 kts | 105° |
| 2026-04-18 07:53 | -20.25326 | 52.98307 | 37059 ft | 481 kts | 104° |
| 2026-04-18 07:54 | -20.26945 | 53.05234 | 37056 ft | 481 kts | 104° |
| 2026-04-18 07:54 | -20.28270 | 53.10987 | 37052 ft | 481 kts | 104° |
| 2026-04-18 07:55 | -20.30154 | 53.19035 | 37051 ft | 482 kts | 104° |
| 2026-04-18 07:55 | -20.31520 | 53.24835 | 37050 ft | 482 kts | 104° |
| 2026-04-18 07:56 | -20.33150 | 53.31774 | 37053 ft | 482 kts | 104° |
| 2026-04-18 07:56 | -20.34771 | 53.38696 | 37049 ft | 482 kts | 104° |
| 2026-04-18 07:57 | -20.36389 | 53.45630 | 37057 ft | 482 kts | 104° |
| 2026-04-18 07:57 | -20.38009 | 53.52563 | 37052 ft | 482 kts | 104° |
| 2026-04-18 07:58 | -20.40426 | 53.62968 | 37054 ft | 482 kts | 104° |
| 2026-04-18 07:59 | -20.42037 | 53.69903 | 36871 ft | 482 kts | 104° |
| 2026-04-18 07:59 | -20.42842 | 53.73374 | 36154 ft | 483 kts | 103° |
| 2026-04-18 07:59 | -20.43653 | 53.76865 | 35279 ft | 487 kts | 103° |
| 2026-04-18 07:59 | -20.44467 | 53.80384 | 34331 ft | 492 kts | 103° |
| 2026-04-18 08:00 | -20.45289 | 53.83939 | 33274 ft | 497 kts | 103° |
| 2026-04-18 08:00 | -20.46117 | 53.87532 | 32214 ft | 500 kts | 103° |
| 2026-04-18 08:00 | -20.46949 | 53.91145 | 31106 ft | 504 kts | 103° |
| 2026-04-18 08:00 | -20.47788 | 53.94777 | 29972 ft | 506 kts | 103° |
| 2026-04-18 08:01 | -20.48628 | 53.98430 | 28892 ft | 505 kts | 103° |
| 2026-04-18 08:01 | -20.49450 | 54.02020 | 28321 ft | 493 kts | 103° |
| 2026-04-18 08:01 | -20.50261 | 54.05545 | 27551 ft | 487 kts | 104° |
| 2026-04-18 08:01 | -20.51065 | 54.09031 | 26825 ft | 481 kts | 104° |
| 2026-04-18 08:02 | -20.51858 | 54.12470 | 26116 ft | 475 kts | 103° |
| 2026-04-18 08:02 | -20.52639 | 54.15879 | 25409 ft | 470 kts | 103° |
| 2026-04-18 08:02 | -20.53411 | 54.19252 | 24719 ft | 465 kts | 103° |
| 2026-04-18 08:02 | -20.54174 | 54.22591 | 24040 ft | 461 kts | 103° |
| 2026-04-18 08:03 | -20.54928 | 54.25902 | 23317 ft | 457 kts | 103° |
| 2026-04-18 08:03 | -20.55675 | 54.29179 | 22648 ft | 451 kts | 104° |
| 2026-04-18 08:03 | -20.56410 | 54.32410 | 22036 ft | 445 kts | 104° |
| 2026-04-18 08:03 | -20.57135 | 54.35606 | 21456 ft | 439 kts | 104° |
| 2026-04-18 08:04 | -20.57848 | 54.38746 | 20936 ft | 433 kts | 104° |
| 2026-04-18 08:04 | -20.58555 | 54.41850 | 20390 ft | 428 kts | 104° |
| 2026-04-18 08:04 | -20.59258 | 54.44923 | 19850 ft | 424 kts | 104° |
| 2026-04-18 08:04 | -20.59950 | 54.47961 | 19330 ft | 420 kts | 104° |
| 2026-04-18 08:05 | -20.60635 | 54.50977 | 18823 ft | 416 kts | 104° |
| 2026-04-18 08:05 | -20.61312 | 54.53968 | 18292 ft | 413 kts | 104° |
| 2026-04-18 08:05 | -20.61980 | 54.56939 | 17717 ft | 410 kts | 104° |
| 2026-04-18 08:05 | -20.62643 | 54.59879 | 17223 ft | 405 kts | 103° |
| 2026-04-18 08:06 | -20.63296 | 54.62765 | 17034 ft | 397 kts | 103° |
| 2026-04-18 08:06 | -20.63945 | 54.65633 | 17049 ft | 398 kts | 103° |
| 2026-04-18 08:06 | -20.64593 | 54.68502 | 17058 ft | 398 kts | 103° |
| 2026-04-18 08:06 | -20.65245 | 54.71381 | 17060 ft | 398 kts | 103° |
| 2026-04-18 08:07 | -20.65893 | 54.74253 | 17055 ft | 398 kts | 103° |
| 2026-04-18 08:07 | -20.66539 | 54.77122 | 17055 ft | 398 kts | 103° |
| 2026-04-18 08:07 | -20.67184 | 54.79992 | 17056 ft | 397 kts | 103° |
| 2026-04-18 08:07 | -20.67828 | 54.82861 | 17057 ft | 397 kts | 103° |
| 2026-04-18 08:08 | -20.68473 | 54.85732 | 17057 ft | 397 kts | 103° |
| 2026-04-18 08:08 | -20.69118 | 54.88601 | 17052 ft | 397 kts | 103° |
| 2026-04-18 08:08 | -20.69761 | 54.91469 | 17050 ft | 397 kts | 103° |
| 2026-04-18 08:08 | -20.70400 | 54.94312 | 17049 ft | 386 kts | 103° |
| 2026-04-18 08:09 | -20.71008 | 54.97033 | 17055 ft | 369 kts | 103° |
| 2026-04-18 08:09 | -20.71588 | 54.99636 | 17059 ft | 352 kts | 103° |
| 2026-04-18 08:09 | -20.72142 | 55.02127 | 17055 ft | 337 kts | 103° |
| 2026-04-18 08:09 | -20.72648 | 55.04393 | 16798 ft | 336 kts | 103° |
| 2026-04-18 08:10 | -20.73190 | 55.06823 | 16265 ft | 334 kts | 103° |
| 2026-04-18 08:10 | -20.73728 | 55.09228 | 15559 ft | 333 kts | 103° |
| 2026-04-18 08:10 | -20.74265 | 55.11624 | 14871 ft | 331 kts | 102° |
| 2026-04-18 08:10 | -20.74797 | 55.14014 | 14217 ft | 329 kts | 102° |
| 2026-04-18 08:11 | -20.75324 | 55.16392 | 13537 ft | 327 kts | 102° |
| 2026-04-18 08:11 | -20.75844 | 55.18747 | 12844 ft | 324 kts | 102° |
| 2026-04-18 08:11 | -20.76361 | 55.21074 | 12217 ft | 319 kts | 102° |
| 2026-04-18 08:11 | -20.76865 | 55.23334 | 11882 ft | 304 kts | 102° |
| 2026-04-18 08:12 | -20.77342 | 55.25474 | 11641 ft | 288 kts | 102° |
| 2026-04-18 08:12 | -20.77793 | 55.27503 | 11402 ft | 273 kts | 102° |
| 2026-04-18 08:12 | -20.77985 | 55.29447 | 11178 ft | 258 kts | 82° |
| 2026-04-18 08:12 | -20.77478 | 55.31257 | 10941 ft | 254 kts | 58° |
| 2026-04-18 08:13 | -20.76353 | 55.32685 | 10707 ft | 251 kts | 35° |
| 2026-04-18 08:13 | -20.74807 | 55.33511 | 10470 ft | 249 kts | 12° |
| 2026-04-18 08:13 | -20.73089 | 55.33624 | 10237 ft | 248 kts | 350° |
| 2026-04-18 08:13 | -20.71471 | 55.33017 | 10011 ft | 248 kts | 327° |
| 2026-04-18 08:14 | -20.70202 | 55.31787 | 9845 ft | 248 kts | 305° |
| 2026-04-18 08:14 | -20.69458 | 55.30132 | 9724 ft | 248 kts | 287° |
| 2026-04-18 08:14 | -20.68990 | 55.28359 | 9589 ft | 248 kts | 284° |
| 2026-04-18 08:14 | -20.68579 | 55.26573 | 9460 ft | 248 kts | 283° |
| 2026-04-18 08:15 | -20.68180 | 55.24777 | 9339 ft | 248 kts | 283° |
| 2026-04-18 08:15 | -20.67783 | 55.22990 | 9206 ft | 247 kts | 283° |
| 2026-04-18 08:15 | -20.67502 | 55.21184 | 9084 ft | 247 kts | 269° |
| 2026-04-18 08:15 | -20.67814 | 55.19394 | 8966 ft | 246 kts | 246° |
| 2026-04-18 08:16 | -20.68736 | 55.17870 | 8750 ft | 245 kts | 225° |
| 2026-04-18 08:16 | -20.70156 | 55.16823 | 8117 ft | 255 kts | 200° |
| 2026-04-18 08:16 | -20.71923 | 55.16476 | 7468 ft | 265 kts | 176° |
| 2026-04-18 08:16 | -20.73683 | 55.16939 | 7063 ft | 257 kts | 152° |
| 2026-04-18 08:17 | -20.75089 | 55.18055 | 6533 ft | 251 kts | 129° |
| 2026-04-18 08:17 | -20.75953 | 55.19649 | 5959 ft | 248 kts | 108° |
| 2026-04-18 08:17 | -20.76438 | 55.21415 | 5377 ft | 247 kts | 104° |
| 2026-04-18 08:17 | -20.76849 | 55.23183 | 4865 ft | 242 kts | 102° |
| 2026-04-18 08:18 | -20.77224 | 55.24880 | 4653 ft | 225 kts | 102° |
| 2026-04-18 08:18 | -20.77565 | 55.26421 | 4639 ft | 200 kts | 103° |
| 2026-04-18 08:18 | -20.77886 | 55.27850 | 4674 ft | 192 kts | 103° |
| 2026-04-18 08:18 | -20.78299 | 55.29149 | 4571 ft | 181 kts | 112° |
| 2026-04-18 08:19 | -20.78833 | 55.30378 | 4215 ft | 183 kts | 115° |
| 2026-04-18 08:19 | -20.79392 | 55.31597 | 3946 ft | 182 kts | 115° |
| 2026-04-18 08:19 | -20.79946 | 55.32804 | 3691 ft | 180 kts | 115° |
| 2026-04-18 08:19 | -20.80487 | 55.33997 | 3451 ft | 176 kts | 115° |
| 2026-04-18 08:20 | -20.81093 | 55.35097 | 3220 ft | 167 kts | 123° |
| 2026-04-18 08:20 | -20.81704 | 55.36108 | 3055 ft | 155 kts | 115° |
| 2026-04-18 08:20 | -20.82147 | 55.37103 | 3011 ft | 147 kts | 114° |
| 2026-04-18 08:20 | -20.82590 | 55.38095 | 3007 ft | 147 kts | 114° |
| 2026-04-18 08:21 | -20.83030 | 55.39080 | 3007 ft | 146 kts | 114° |
| 2026-04-18 08:21 | -20.83470 | 55.40066 | 2825 ft | 144 kts | 114° |
| 2026-04-18 08:21 | -20.83891 | 55.41010 | 2606 ft | 140 kts | 114° |
| 2026-04-18 08:21 | -20.84321 | 55.41947 | 2244 ft | 142 kts | 116° |
| 2026-04-18 08:22 | -20.84772 | 55.42887 | 1852 ft | 143 kts | 115° |
| 2026-04-18 08:22 | -20.85230 | 55.43834 | 1440 ft | 144 kts | 115° |
| 2026-04-18 08:22 | -20.85692 | 55.44794 | 969 ft | 145 kts | 114° |
| 2026-04-18 08:22 | -20.86145 | 55.45721 | 799 ft | 137 kts | 118° |
| 2026-04-18 08:23 | -20.86778 | 55.46497 | 820 ft | 140 kts | 136° |
| 2026-04-18 08:23 | -20.87517 | 55.47176 | 844 ft | 139 kts | 128° |
| 2026-04-18 08:23 | -20.88025 | 55.48017 | 668 ft | 133 kts | 111° |
| 2026-04-18 08:23 | -20.88295 | 55.48970 | 442 ft | 135 kts | 101° |
| 2026-04-18 08:24 | -20.88489 | 55.49944 | 237 ft | 134 kts | 99° |
| 2026-04-18 08:24 | -20.88690 | 55.50898 | 56 ft | 129 kts | 99° |
| 2026-04-18 08:24 | -20.88848 | 55.51702 | 49 ft | 84 kts | 102° |
| 2026-04-18 08:24 | -20.88940 | 55.52150 | 47 ft | 53 kts | 102° |
| 2026-04-18 08:25 | -20.89011 | 55.52506 | 40 ft | 46 kts | 102° |
| 2026-04-18 08:25 | -20.89078 | 55.52826 | 42 ft | 43 kts | 101° |
| 2026-04-18 08:25 | -20.89141 | 55.53131 | 39 ft | 42 kts | 101° |
| 2026-04-18 08:25 | -20.89186 | 55.53385 | 40 ft | 20 kts | 78° |
| 2026-04-18 08:26 | -20.89197 | 55.53462 | 40 ft | 7 kts | 175° |
| 2026-04-18 08:26 | -20.89208 | 55.53435 | 39 ft | 6 kts | 290° |
| 2026-04-18 08:26 | -20.89173 | 55.53285 | 39 ft | 34 kts | 284° |
| 2026-04-18 08:26 | -20.89097 | 55.52969 | 41 ft | 52 kts | 273° |
| 2026-04-18 08:27 | -20.89023 | 55.52553 | 42 ft | 62 kts | 282° |
| 2026-04-18 08:27 | -20.88926 | 55.52087 | 48 ft | 63 kts | 285° |
| 2026-04-18 08:27 | -20.88838 | 55.51646 | 46 ft | 59 kts | 282° |
| 2026-04-18 08:27 | -20.88764 | 55.51274 | 50 ft | 37 kts | 284° |
| 2026-04-18 08:28 | -20.88786 | 55.51139 | 54 ft | 12 kts | 184° |
| 2026-04-18 08:28 | -20.88857 | 55.51155 | 55 ft | 9 kts | 162° |
| 2026-04-18 08:28 | -20.88904 | 55.51171 | 57 ft | 5 kts | 162° |
| 2026-04-18 08:28 | -20.88916 | 55.51174 | 51 ft | 3 kts | 171° |
| 2026-04-18 08:29 | -20.88945 | 55.51140 | 59 ft | 10 kts | 295° |
| 2026-04-18 08:29 | -20.88895 | 55.51035 | 57 ft | 8 kts | 303° |
| 2026-04-18 08:29 | -20.88898 | 55.51008 | 58 ft | 3 kts | 222° |
| 2026-04-18 08:29 | -20.88942 | 55.50993 | 57 ft | 5 kts | 207° |
| 2026-04-18 08:30 | -20.88964 | 55.50981 | 57 ft | 0 kts | 206° |
| 2026-04-18 08:33 | -20.88978 | 55.50993 | 55 ft | 9 kts | 120° |
| 2026-04-18 08:33 | -20.88956 | 55.51039 | 56 ft | 7 kts | 68° |
| 2026-04-18 08:33 | -20.88964 | 55.51093 | 58 ft | 8 kts | 114° |
| 2026-04-18 08:33 | -20.89005 | 55.51108 | 57 ft | 6 kts | 197° |
| 2026-04-18 08:34 | -20.89026 | 55.51098 | 53 ft | 0 kts | 205° |
| 2026-04-18 08:34 | -20.89013 | 55.51104 | 57 ft | 0 kts | 205° |
| 2026-04-18 08:35 | -20.89024 | 55.51099 | 53 ft | 0 kts | 205° |
| 2026-04-18 08:35 | -20.89025 | 55.51098 | 53 ft | 0 kts | 205° |
| 2026-04-18 08:35 | -20.89027 | 55.51098 | 53 ft | 0 kts | 205° |
| 2026-04-18 08:35 | -20.89023 | 55.51100 | 56 ft | 0 kts | 205° |